Terminal Aerodrome Forecast
Issued by NWS Cleveland, OH

Home | Current Version | Previous Version | Text Only | Print | Product List | Glossary Off
Versions: 1 2 3 4 5 6 7 8 9 10 11 12 13 14 15 16 17 18 19 20 21

346
FTUS41 KCLE 190802 AAA
TAFMFD
TAF AMD
KMFD 190802Z 1908/2006 30015G25KT P6SM OVC025
     FM191200 30015G25KT P6SM OVC015
     FM191500 29015G25KT P6SM OVC025
     FM192300 28012KT P6SM BKN035
     FM200000 28012KT P6SM BKN025
     FM200200 27012KT P6SM BKN035=

USA.gov is the U.S. government's official web portal to all federal, state and local government web resources and services.